sensor_id;sensor_type;location;lat;lon;timestamp;pressure;altitude;pressure_sealevel;temperature;humidity
15382;BME280;7789;51.364;12.358;2023-03-16T00:02:38;100937.84;;;2.01;96.67
15382;BME280;7789;51.364;12.358;2023-03-16T00:07:42;100934.56;;;1.98;97.30
15382;BME280;7789;51.364;12.358;2023-03-16T00:12:48;100937.22;;;1.95;96.63
15382;BME280;7789;51.364;12.358;2023-03-16T00:17:56;100933.06;;;1.92;97.20
15382;BME280;7789;51.364;12.358;2023-03-16T00:23:02;100939.16;;;1.90;97.20
15382;BME280;7789;51.364;12.358;2023-03-16T00:28:12;100936.69;;;1.87;97.56
15382;BME280;7789;51.364;12.358;2023-03-16T00:33:30;100943.69;;;1.83;97.83
15382;BME280;7789;51.364;12.358;2023-03-16T00:38:37;100940.28;;;1.83;98.18
15382;BME280;7789;51.364;12.358;2023-03-16T00:43:44;100949.81;;;1.81;97.87
15382;BME280;7789;51.364;12.358;2023-03-16T00:48:48;100954.22;;;1.77;98.75
15382;BME280;7789;51.364;12.358;2023-03-16T00:53:56;100961.22;;;1.74;99.21
15382;BME280;7789;51.364;12.358;2023-03-16T00:59:03;100959.53;;;1.73;99.11
15382;BME280;7789;51.364;12.358;2023-03-16T01:04:09;100962.25;;;1.70;99.81
15382;BME280;7789;51.364;12.358;2023-03-16T01:09:17;100966.72;;;1.65;100.00
15382;BME280;7789;51.364;12.358;2023-03-16T01:14:23;100957.31;;;1.64;100.00
15382;BME280;7789;51.364;12.358;2023-03-16T01:19:33;100958.25;;;1.62;100.00
15382;BME280;7789;51.364;12.358;2023-03-16T01:24:41;100954.81;;;1.61;100.00
15382;BME280;7789;51.364;12.358;2023-03-16T01:29:48;100947.09;;;1.61;100.00
15382;BME280;7789;51.364;12.358;2023-03-16T01:34:52;100963.41;;;1.62;100.00
15382;BME280;7789;51.364;12.358;2023-03-16T01:39:58;100950.53;;;1.62;100.00
15382;BME280;7789;51.364;12.358;2023-03-16T01:50:44;100949.91;;;1.55;100.00
15382;BME280;7789;51.364;12.358;2023-03-16T01:56:15;100950.81;;;1.54;100.00
15382;BME280;7789;51.364;12.358;2023-03-16T02:01:23;100943.03;;;1.56;100.00
15382;BME280;7789;51.364;12.358;2023-03-16T02:06:33;100934.47;;;1.55;100.00
15382;BME280;7789;51.364;12.358;2023-03-16T02:11:39;100932.00;;;1.52;100.00
15382;BME280;7789;51.364;12.358;2023-03-16T02:16:47;100937.19;;;1.51;100.00
15382;BME280;7789;51.364;12.358;2023-03-16T02:21:59;100932.16;;;1.48;100.00
15382;BME280;7789;51.364;12.358;2023-03-16T02:27:06;100925.41;;;1.45;100.00
15382;BME280;7789;51.364;12.358;2023-03-16T02:32:18;100934.88;;;1.43;100.00
15382;BME280;7789;51.364;12.358;2023-03-16T02:37:22;100936.69;;;1.41;100.00
15382;BME280;7789;51.364;12.358;2023-03-16T02:42:28;100943.63;;;1.39;100.00
15382;BME280;7789;51.364;12.358;2023-03-16T02:47:42;100938.59;;;1.36;100.00
15382;BME280;7789;51.364;12.358;2023-03-16T02:52:49;100943.78;;;1.35;100.00
15382;BME280;7789;51.364;12.358;2023-03-16T02:57:57;100943.88;;;1.32;100.00
15382;BME280;7789;51.364;12.358;2023-03-16T03:03:17;100949.03;;;1.32;100.00
15382;BME280;7789;51.364;12.358;2023-03-16T03:08:26;100942.38;;;1.26;100.00
15382;BME280;7789;51.364;12.358;2023-03-16T03:13:36;100946.69;;;1.26;100.00
15382;BME280;7789;51.364;12.358;2023-03-16T03:18:48;100961.25;;;1.27;100.00
15382;BME280;7789;51.364;12.358;2023-03-16T03:23:55;100971.53;;;1.27;100.00
15382;BME280;7789;51.364;12.358;2023-03-16T03:29:04;100959.69;;;1.23;100.00
15382;BME280;7789;51.364;12.358;2023-03-16T03:34:13;100963.94;;;1.24;100.00
15382;BME280;7789;51.364;12.358;2023-03-16T03:39:22;100962.19;;;1.24;100.00
15382;BME280;7789;51.364;12.358;2023-03-16T03:44:27;100959.69;;;1.23;100.00
15382;BME280;7789;51.364;12.358;2023-03-16T03:49:38;100968.34;;;1.20;100.00
15382;BME280;7789;51.364;12.358;2023-03-16T03:54:54;100967.44;;;1.21;100.00
15382;BME280;7789;51.364;12.358;2023-03-16T04:00:00;100958.94;;;1.19;100.00
15382;BME280;7789;51.364;12.358;2023-03-16T04:05:17;100951.22;;;1.19;100.00
15382;BME280;7789;51.364;12.358;2023-03-16T04:10:21;100946.97;;;1.18;100.00
15382;BME280;7789;51.364;12.358;2023-03-16T04:15:26;100955.47;;;1.20;100.00
15382;BME280;7789;51.364;12.358;2023-03-16T04:20:34;100952.94;;;1.19;100.00
15382;BME280;7789;51.364;12.358;2023-03-16T04:25:40;100949.53;;;1.18;100.00
15382;BME280;7789;51.364;12.358;2023-03-16T04:30:50;100948.66;;;1.18;100.00
15382;BME280;7789;51.364;12.358;2023-03-16T04:35:58;100956.34;;;1.19;100.00
15382;BME280;7789;51.364;12.358;2023-03-16T04:41:06;100946.06;;;1.19;100.00
15382;BME280;7789;51.364;12.358;2023-03-16T04:46:12;100952.06;;;1.20;100.00
15382;BME280;7789;51.364;12.358;2023-03-16T04:51:21;100950.34;;;1.19;100.00
15382;BME280;7789;51.364;12.358;2023-03-16T04:56:30;100954.63;;;1.20;100.00
15382;BME280;7789;51.364;12.358;2023-03-16T05:01:46;100950.34;;;1.19;100.00
15382;BME280;7789;51.364;12.358;2023-03-16T05:06:54;100959.81;;;1.18;100.00
15382;BME280;7789;51.364;12.358;2023-03-16T05:12:05;100953.81;;;1.18;100.00
15382;BME280;7789;51.364;12.358;2023-03-16T05:17:15;100958.19;;;1.16;100.00
15382;BME280;7789;51.364;12.358;2023-03-16T05:22:23;100962.44;;;1.17;100.00
15382;BME280;7789;51.364;12.358;2023-03-16T05:27:31;100969.34;;;1.16;100.00
15382;BME280;7789;51.364;12.358;2023-03-16T05:32:50;100970.13;;;1.18;100.00
15382;BME280;7789;51.364;12.358;2023-03-16T05:37:59;100971.75;;;1.21;100.00
15382;BME280;7789;51.364;12.358;2023-03-16T05:43:05;100969.84;;;1.26;100.00
15382;BME280;7789;51.364;12.358;2023-03-16T05:48:12;100979.16;;;1.30;100.00
15382;BME280;7789;51.364;12.358;2023-03-16T05:53:20;100977.25;;;1.35;100.00
15382;BME280;7789;51.364;12.358;2023-03-16T05:58:35;100974.41;;;1.42;100.00
15382;BME280;7789;51.364;12.358;2023-03-16T06:03:40;100984.50;;;1.48;100.00
15382;BME280;7789;51.364;12.358;2023-03-16T06:08:53;100988.44;;;1.58;100.00
15382;BME280;7789;51.364;12.358;2023-03-16T06:14:06;100995.88;;;1.66;100.00
15382;BME280;7789;51.364;12.358;2023-03-16T06:19:12;100988.66;;;1.75;100.00
15382;BME280;7789;51.364;12.358;2023-03-16T06:24:19;100991.72;;;1.86;100.00
15382;BME280;7789;51.364;12.358;2023-03-16T06:29:25;100985.22;;;1.99;100.00
15382;BME280;7789;51.364;12.358;2023-03-16T06:34:34;100989.84;;;2.12;100.00
15382;BME280;7789;51.364;12.358;2023-03-16T06:39:41;100983.34;;;2.47;100.00
15382;BME280;7789;51.364;12.358;2023-03-16T06:44:49;100991.13;;;2.67;99.25
15382;BME280;7789;51.364;12.358;2023-03-16T06:50:00;100986.06;;;4.03;95.47
15382;BME280;7789;51.364;12.358;2023-03-16T06:55:08;100992.56;;;4.66;91.17
15382;BME280;7789;51.364;12.358;2023-03-16T07:00:19;100974.53;;;6.14;87.25
15382;BME280;7789;51.364;12.358;2023-03-16T07:05:28;100977.56;;;8.25;80.42
15382;BME280;7789;51.364;12.358;2023-03-16T07:10:34;100976.50;;;9.33;75.00
15382;BME280;7789;51.364;12.358;2023-03-16T07:15:49;100970.06;;;10.84;66.71
15382;BME280;7789;51.364;12.358;2023-03-16T07:20:58;100976.47;;;10.56;66.56
15382;BME280;7789;51.364;12.358;2023-03-16T07:26:05;100973.84;;;12.89;60.47
15382;BME280;7789;51.364;12.358;2023-03-16T07:31:13;100970.75;;;14.47;55.86
15382;BME280;7789;51.364;12.358;2023-03-16T07:36:18;100967.06;;;14.96;51.29
15382;BME280;7789;51.364;12.358;2023-03-16T07:41:29;100962.91;;;14.84;50.91
15382;BME280;7789;51.364;12.358;2023-03-16T07:46:40;100958.97;;;14.41;51.14
15382;BME280;7789;51.364;12.358;2023-03-16T07:51:44;100967.34;;;14.65;49.98
15382;BME280;7789;51.364;12.358;2023-03-16T07:56:54;100962.91;;;14.84;49.90
15382;BME280;7789;51.364;12.358;2023-03-16T08:01:59;100972.44;;;14.67;47.51
15382;BME280;7789;51.364;12.358;2023-03-16T08:07:05;100978.34;;;13.71;47.75
15382;BME280;7789;51.364;12.358;2023-03-16T08:12:14;100974.78;;;14.51;47.46
15382;BME280;7789;51.364;12.358;2023-03-16T08:17:22;100976.72;;;14.49;47.83
15382;BME280;7789;51.364;12.358;2023-03-16T08:22:29;100972.59;;;14.65;46.79
15382;BME280;7789;51.364;12.358;2023-03-16T08:27:36;100988.91;;;13.80;48.29
15382;BME280;7789;51.364;12.358;2023-03-16T08:32:44;100995.00;;;13.40;47.48
15382;BME280;7789;51.364;12.358;2023-03-16T08:37:48;100995.38;;;14.36;46.64
15382;BME280;7789;51.364;12.358;2023-03-16T08:42:59;101003.88;;;16.18;43.64
15382;BME280;7789;51.364;12.358;2023-03-16T08:48:06;100998.59;;;16.55;42.60
15382;BME280;7789;51.364;12.358;2023-03-16T08:53:14;100996.72;;;15.46;43.41
15382;BME280;7789;51.364;12.358;2023-03-16T08:58:21;101001.63;;;14.15;44.93
15382;BME280;7789;51.364;12.358;2023-03-16T09:03:31;101008.19;;;13.70;45.48
15382;BME280;7789;51.364;12.358;2023-03-16T09:08:36;101007.50;;;13.47;45.50
15382;BME280;7789;51.364;12.358;2023-03-16T09:13:44;100995.75;;;14.81;42.91
15382;BME280;7789;51.364;12.358;2023-03-16T09:18:50;101003.09;;;13.98;45.01
15382;BME280;7789;51.364;12.358;2023-03-16T09:23:57;100996.00;;;13.69;45.09
15382;BME280;7789;51.364;12.358;2023-03-16T09:29:04;100988.22;;;13.58;44.40
15382;BME280;7789;51.364;12.358;2023-03-16T09:34:09;100986.72;;;13.44;44.26
15382;BME280;7789;51.364;12.358;2023-03-16T09:39:15;101001.09;;;13.20;44.30
15382;BME280;7789;51.364;12.358;2023-03-16T09:44:31;100995.03;;;13.08;43.13
15382;BME280;7789;51.364;12.358;2023-03-16T09:49:46;100994.94;;;12.99;43.63
15382;BME280;7789;51.364;12.358;2023-03-16T09:55:06;100992.56;;;12.85;43.24
15382;BME280;7789;51.364;12.358;2023-03-16T10:00:22;100995.16;;;12.65;42.83
15382;BME280;7789;51.364;12.358;2023-03-16T10:05:28;100989.31;;;12.72;43.99
15382;BME280;7789;51.364;12.358;2023-03-16T10:10:45;101002.44;;;12.50;43.46
15382;BME280;7789;51.364;12.358;2023-03-16T10:15:56;100991.03;;;12.40;43.77
15382;BME280;7789;51.364;12.358;2023-03-16T10:21:10;100998.19;;;11.94;43.58
15382;BME280;7789;51.364;12.358;2023-03-16T10:26:20;100991.56;;;12.01;44.53
15382;BME280;7789;51.364;12.358;2023-03-16T10:31:33;100983.66;;;11.79;42.58
15382;BME280;7789;51.364;12.358;2023-03-16T10:36:43;100976.28;;;11.73;42.94
15382;BME280;7789;51.364;12.358;2023-03-16T10:41:57;100984.28;;;11.48;43.92
15382;BME280;7789;51.364;12.358;2023-03-16T10:47:05;100974.06;;;11.45;45.74
15382;BME280;7789;51.364;12.358;2023-03-16T10:52:15;100971.09;;;11.50;46.43
15382;BME280;7789;51.364;12.358;2023-03-16T10:57:28;100958.41;;;11.56;45.69
15382;BME280;7789;51.364;12.358;2023-03-16T11:02:38;100957.16;;;11.38;45.64
15382;BME280;7789;51.364;12.358;2023-03-16T11:07:51;100957.75;;;11.31;44.99
15382;BME280;7789;51.364;12.358;2023-03-16T11:13:09;100942.84;;;11.20;45.10
15382;BME280;7789;51.364;12.358;2023-03-16T11:18:32;100932.56;;;11.06;44.94
15382;BME280;7789;51.364;12.358;2023-03-16T11:23:41;100929.28;;;11.15;45.86
15382;BME280;7789;51.364;12.358;2023-03-16T11:28:50;100927.94;;;11.10;45.24
15382;BME280;7789;51.364;12.358;2023-03-16T11:34:12;100923.09;;;11.16;45.82
15382;BME280;7789;51.364;12.358;2023-03-16T11:39:30;100921.06;;;11.09;44.42
15382;BME280;7789;51.364;12.358;2023-03-16T11:44:43;100914.72;;;11.01;44.09
15382;BME280;7789;51.364;12.358;2023-03-16T11:49:58;100916.16;;;11.04;44.05
15382;BME280;7789;51.364;12.358;2023-03-16T11:55:18;100897.47;;;10.98;43.34
15382;BME280;7789;51.364;12.358;2023-03-16T12:00:31;100900.47;;;11.04;43.78
15382;BME280;7789;51.364;12.358;2023-03-16T12:05:58;100888.28;;;10.93;41.64
15382;BME280;7789;51.364;12.358;2023-03-16T12:11:27;100883.28;;;10.90;42.33
15382;BME280;7789;51.364;12.358;2023-03-16T12:16:38;100874.91;;;11.08;41.61
15382;BME280;7789;51.364;12.358;2023-03-16T12:22:00;100875.50;;;11.11;40.16
15382;BME280;7789;51.364;12.358;2023-03-16T12:27:11;100857.53;;;11.07;41.19
15382;BME280;7789;51.364;12.358;2023-03-16T12:32:48;100852.03;;;10.99;41.29
15382;BME280;7789;51.364;12.358;2023-03-16T12:38:27;100831.50;;;11.16;40.81
15382;BME280;7789;51.364;12.358;2023-03-16T12:43:45;100826.03;;;11.08;41.31
15382;BME280;7789;51.364;12.358;2023-03-16T12:48:58;100817.22;;;11.09;41.82
15382;BME280;7789;51.364;12.358;2023-03-16T12:54:20;100815.56;;;11.08;41.73
15382;BME280;7789;51.364;12.358;2023-03-16T12:59:35;100811.28;;;11.07;42.01
15382;BME280;7789;51.364;12.358;2023-03-16T13:04:44;100807.34;;;11.02;42.01
15382;BME280;7789;51.364;12.358;2023-03-16T13:09:59;100802.44;;;10.98;42.36
15382;BME280;7789;51.364;12.358;2023-03-16T13:15:24;100794.03;;;10.94;40.58
15382;BME280;7789;51.364;12.358;2023-03-16T13:20:49;100802.81;;;10.93;40.32
15382;BME280;7789;51.364;12.358;2023-03-16T13:26:21;100792.94;;;10.86;39.63
15382;BME280;7789;51.364;12.358;2023-03-16T13:31:36;100794.59;;;10.87;39.75
15382;BME280;7789;51.364;12.358;2023-03-16T13:36:43;100798.03;;;10.87;40.32
15382;BME280;7789;51.364;12.358;2023-03-16T13:42:14;100790.31;;;10.86;39.08
15382;BME280;7789;51.364;12.358;2023-03-16T13:47:21;100803.97;;;10.89;39.43
15382;BME280;7789;51.364;12.358;2023-03-16T13:52:30;100791.84;;;10.88;39.78
15382;BME280;7789;51.364;12.358;2023-03-16T13:57:41;100803.41;;;10.86;38.24
15382;BME280;7789;51.364;12.358;2023-03-16T14:02:50;100807.22;;;10.82;39.06
15382;BME280;7789;51.364;12.358;2023-03-16T14:07:56;100791.00;;;10.77;39.82
15382;BME280;7789;51.364;12.358;2023-03-16T14:13:23;100770.56;;;10.71;40.31
15382;BME280;7789;51.364;12.358;2023-03-16T14:18:32;100765.44;;;10.58;40.74
15382;BME280;7789;51.364;12.358;2023-03-16T14:23:41;100749.38;;;10.63;39.77
15382;BME280;7789;51.364;12.358;2023-03-16T14:29:00;100749.88;;;10.68;40.78
15382;BME280;7789;51.364;12.358;2023-03-16T14:34:21;100751.03;;;10.64;40.85
15382;BME280;7789;51.364;12.358;2023-03-16T14:39:28;100728.13;;;10.56;41.67
15382;BME280;7789;51.364;12.358;2023-03-16T14:44:40;100730.00;;;10.54;42.30
15382;BME280;7789;51.364;12.358;2023-03-16T14:49:45;100726.69;;;10.52;41.92
15382;BME280;7789;51.364;12.358;2023-03-16T14:54:53;100707.31;;;10.55;42.63
15382;BME280;7789;51.364;12.358;2023-03-16T15:00:00;100690.09;;;10.52;41.77
15382;BME280;7789;51.364;12.358;2023-03-16T15:05:05;100691.28;;;10.48;41.81
15382;BME280;7789;51.364;12.358;2023-03-16T15:10:19;100675.94;;;10.44;42.52
15382;BME280;7789;51.364;12.358;2023-03-16T15:15:30;100673.47;;;10.42;41.80
15382;BME280;7789;51.364;12.358;2023-03-16T15:20:37;100677.84;;;10.42;42.21
15382;BME280;7789;51.364;12.358;2023-03-16T15:25:44;100669.19;;;10.41;42.09
15382;BME280;7789;51.364;12.358;2023-03-16T15:30:59;100683.66;;;10.45;43.69
15382;BME280;7789;51.364;12.358;2023-03-16T15:36:13;100664.91;;;10.40;43.59
15382;BME280;7789;51.364;12.358;2023-03-16T15:41:20;100667.97;;;10.34;43.61
15382;BME280;7789;51.364;12.358;2023-03-16T15:46:26;100663.94;;;10.30;44.47
15382;BME280;7789;51.364;12.358;2023-03-16T15:51:32;100671.16;;;10.27;43.96
15382;BME280;7789;51.364;12.358;2023-03-16T15:56:44;100644.66;;;10.20;43.64
15382;BME280;7789;51.364;12.358;2023-03-16T16:01:58;100660.56;;;10.17;43.99
15382;BME280;7789;51.364;12.358;2023-03-16T16:07:08;100654.53;;;10.17;43.26
15382;BME280;7789;51.364;12.358;2023-03-16T16:12:14;100656.44;;;10.15;43.24
15382;BME280;7789;51.364;12.358;2023-03-16T16:17:23;100643.38;;;10.15;43.89
15382;BME280;7789;51.364;12.358;2023-03-16T16:23:02;100652.16;;;10.14;44.31
15382;BME280;7789;51.364;12.358;2023-03-16T16:28:12;100636.59;;;10.12;44.54
15382;BME280;7789;51.364;12.358;2023-03-16T16:33:27;100635.88;;;10.10;44.32
15382;BME280;7789;51.364;12.358;2023-03-16T16:38:32;100639.19;;;10.12;44.96
15382;BME280;7789;51.364;12.358;2023-03-16T16:43:39;100633.88;;;10.14;45.68
15382;BME280;7789;51.364;12.358;2023-03-16T16:54:23;100638.00;;;10.16;46.03
15382;BME280;7789;51.364;12.358;2023-03-16T16:59:32;100634.06;;;10.11;46.48
15382;BME280;7789;51.364;12.358;2023-03-16T17:04:37;100638.81;;;10.06;47.28
15382;BME280;7789;51.364;12.358;2023-03-16T17:09:43;100630.59;;;9.99;46.49
15382;BME280;7789;51.364;12.358;2023-03-16T17:14:46;100626.63;;;9.94;46.85
15382;BME280;7789;51.364;12.358;2023-03-16T17:19:52;100620.84;;;9.90;47.89
15382;BME280;7789;51.364;12.358;2023-03-16T17:25:22;100618.47;;;9.87;48.02
15382;BME280;7789;51.364;12.358;2023-03-16T17:30:28;100615.47;;;9.81;47.76
15382;BME280;7789;51.364;12.358;2023-03-16T17:35:34;100625.69;;;9.84;48.04
15382;BME280;7789;51.364;12.358;2023-03-16T17:40:50;100609.06;;;9.85;48.49
15382;BME280;7789;51.364;12.358;2023-03-16T17:45:55;100608.34;;;9.83;48.36
15382;BME280;7789;51.364;12.358;2023-03-16T17:51:00;100611.91;;;9.82;48.01
15382;BME280;7789;51.364;12.358;2023-03-16T17:56:14;100612.97;;;9.79;48.67
15382;BME280;7789;51.364;12.358;2023-03-16T18:01:22;100616.16;;;9.72;49.87
15382;BME280;7789;51.364;12.358;2023-03-16T18:06:28;100617.91;;;9.60;50.67
15382;BME280;7789;51.364;12.358;2023-03-16T18:11:45;100605.75;;;9.48;50.46
15382;BME280;7789;51.364;12.358;2023-03-16T18:16:50;100609.03;;;9.39;50.72
15382;BME280;7789;51.364;12.358;2023-03-16T18:21:57;100602.72;;;9.31;51.22
15382;BME280;7789;51.364;12.358;2023-03-16T18:27:05;100599.00;;;9.22;51.45
15382;BME280;7789;51.364;12.358;2023-03-16T18:32:19;100599.31;;;9.18;51.38
15382;BME280;7789;51.364;12.358;2023-03-16T18:37:28;100591.72;;;9.15;51.43
15382;BME280;7789;51.364;12.358;2023-03-16T18:42:36;100592.91;;;9.11;51.42
15382;BME280;7789;51.364;12.358;2023-03-16T18:47:51;100583.59;;;9.07;51.24
15382;BME280;7789;51.364;12.358;2023-03-16T18:52:57;100583.34;;;8.99;50.75
15382;BME280;7789;51.364;12.358;2023-03-16T18:58:12;100592.09;;;8.98;51.17
15382;BME280;7789;51.364;12.358;2023-03-16T19:03:24;100599.63;;;8.90;51.33
15382;BME280;7789;51.364;12.358;2023-03-16T19:08:32;100596.75;;;8.82;52.17
15382;BME280;7789;51.364;12.358;2023-03-16T19:13:38;100596.84;;;8.81;51.66
15382;BME280;7789;51.364;12.358;2023-03-16T19:18:44;100605.81;;;8.77;52.14
15382;BME280;7789;51.364;12.358;2023-03-16T19:23:54;100612.22;;;8.73;52.88
15382;BME280;7789;51.364;12.358;2023-03-16T19:29:01;100614.41;;;8.66;52.77
15382;BME280;7789;51.364;12.358;2023-03-16T19:34:14;100602.00;;;8.57;52.50
15382;BME280;7789;51.364;12.358;2023-03-16T19:39:21;100592.47;;;8.45;53.40
15382;BME280;7789;51.364;12.358;2023-03-16T19:44:27;100599.72;;;8.40;54.19
15382;BME280;7789;51.364;12.358;2023-03-16T19:49:33;100597.47;;;8.36;54.79
15382;BME280;7789;51.364;12.358;2023-03-16T19:54:37;100600.16;;;8.34;54.21
15382;BME280;7789;51.364;12.358;2023-03-16T19:59:51;100599.31;;;8.34;55.17
15382;BME280;7789;51.364;12.358;2023-03-16T20:05:15;100592.44;;;8.33;55.49
15382;BME280;7789;51.364;12.358;2023-03-16T20:10:29;100596.13;;;8.30;54.85
15382;BME280;7789;51.364;12.358;2023-03-16T20:15:43;100576.63;;;8.23;54.87
15382;BME280;7789;51.364;12.358;2023-03-16T20:20:48;100573.44;;;8.20;55.92
15382;BME280;7789;51.364;12.358;2023-03-16T20:25:54;100572.13;;;8.13;55.85
15382;BME280;7789;51.364;12.358;2023-03-16T20:31:07;100562.97;;;8.07;57.43
15382;BME280;7789;51.364;12.358;2023-03-16T20:36:20;100560.16;;;7.98;57.45
15382;BME280;7789;51.364;12.358;2023-03-16T20:41:27;100554.66;;;7.90;57.73
15382;BME280;7789;51.364;12.358;2023-03-16T20:46:41;100552.56;;;7.82;58.11
15382;BME280;7789;51.364;12.358;2023-03-16T20:51:49;100561.31;;;7.69;58.06
15382;BME280;7789;51.364;12.358;2023-03-16T20:56:54;100550.69;;;7.59;58.54
15382;BME280;7789;51.364;12.358;2023-03-16T21:02:24;100555.66;;;7.50;58.95
15382;BME280;7789;51.364;12.358;2023-03-16T21:07:44;100556.34;;;7.39;60.11
15382;BME280;7789;51.364;12.358;2023-03-16T21:12:52;100559.47;;;7.32;59.33
15382;BME280;7789;51.364;12.358;2023-03-16T21:18:01;100548.53;;;7.27;59.93
15382;BME280;7789;51.364;12.358;2023-03-16T21:23:11;100545.41;;;7.22;60.04
15382;BME280;7789;51.364;12.358;2023-03-16T21:28:17;100541.56;;;7.15;60.90
15382;BME280;7789;51.364;12.358;2023-03-16T21:33:30;100534.13;;;7.09;60.56
15382;BME280;7789;51.364;12.358;2023-03-16T21:38:41;100536.41;;;7.01;60.38
15382;BME280;7789;51.364;12.358;2023-03-16T21:43:55;100516.84;;;6.96;61.05
15382;BME280;7789;51.364;12.358;2023-03-16T21:49:01;100512.94;;;6.89;61.56
15382;BME280;7789;51.364;12.358;2023-03-16T21:54:23;100512.53;;;6.82;61.92
15382;BME280;7789;51.364;12.358;2023-03-16T21:59:29;100504.31;;;6.76;61.50
15382;BME280;7789;51.364;12.358;2023-03-16T22:04:39;100491.69;;;6.70;61.67
15382;BME280;7789;51.364;12.358;2023-03-16T22:09:48;100497.09;;;6.67;62.08
15382;BME280;7789;51.364;12.358;2023-03-16T22:14:55;100489.59;;;6.62;62.41
15382;BME280;7789;51.364;12.358;2023-03-16T22:20:15;100493.09;;;6.61;62.21
15382;BME280;7789;51.364;12.358;2023-03-16T22:25:24;100495.81;;;6.60;61.84
15382;BME280;7789;51.364;12.358;2023-03-16T22:30:31;100485.53;;;6.58;61.65
15382;BME280;7789;51.364;12.358;2023-03-16T22:35:36;100485.63;;;6.57;62.36
15382;BME280;7789;51.364;12.358;2023-03-16T22:40:42;100493.50;;;6.55;61.89
15382;BME280;7789;51.364;12.358;2023-03-16T22:45:49;100494.53;;;6.53;62.08
15382;BME280;7789;51.364;12.358;2023-03-16T22:51:02;100477.41;;;6.50;62.54
15382;BME280;7789;51.364;12.358;2023-03-16T22:56:07;100467.28;;;6.46;62.68
15382;BME280;7789;51.364;12.358;2023-03-16T23:01:15;100460.63;;;6.42;62.77
15382;BME280;7789;51.364;12.358;2023-03-16T23:06:25;100458.25;;;6.39;63.14
15382;BME280;7789;51.364;12.358;2023-03-16T23:11:32;100454.28;;;6.33;63.08
15382;BME280;7789;51.364;12.358;2023-03-16T23:16:37;100435.53;;;6.28;62.78
15382;BME280;7789;51.364;12.358;2023-03-16T23:21:46;100430.66;;;6.24;63.63
15382;BME280;7789;51.364;12.358;2023-03-16T23:26:52;100433.53;;;6.19;63.11
15382;BME280;7789;51.364;12.358;2023-03-16T23:32:05;100421.78;;;6.14;63.67
15382;BME280;7789;51.364;12.358;2023-03-16T23:37:13;100410.84;;;6.09;63.48
15382;BME280;7789;51.364;12.358;2023-03-16T23:42:17;100404.19;;;6.05;63.48
15382;BME280;7789;51.364;12.358;2023-03-16T23:47:21;100403.56;;;6.01;64.14
15382;BME280;7789;51.364;12.358;2023-03-16T23:52:30;100392.53;;;5.98;63.76
15382;BME280;7789;51.364;12.358;2023-03-16T23:57:37;100403.09;;;5.95;63.87
